sensor_id;sensor_type;location;lat;lon;timestamp;pressure;altitude;pressure_sealevel;temperature;humidity
25420;BME280;13354;48.174;11.566;2023-07-13T00:00:10;95673.56;;;19.22;100.00
25420;BME280;13354;48.174;11.566;2023-07-13T00:02:36;95672.28;;;19.24;100.00
25420;BME280;13354;48.174;11.566;2023-07-13T00:05:02;95664.47;;;19.23;100.00
25420;BME280;13354;48.174;11.566;2023-07-13T00:07:27;95653.50;;;19.24;100.00
25420;BME280;13354;48.174;11.566;2023-07-13T00:09:52;95662.03;;;19.21;100.00
25420;BME280;13354;48.174;11.566;2023-07-13T00:12:23;95650.75;;;19.19;100.00
25420;BME280;13354;48.174;11.566;2023-07-13T00:14:49;95652.63;;;19.19;100.00
25420;BME280;13354;48.174;11.566;2023-07-13T00:17:15;95652.50;;;19.30;100.00
25420;BME280;13354;48.174;11.566;2023-07-13T00:19:40;95646.56;;;19.28;100.00
25420;BME280;13354;48.174;11.566;2023-07-13T00:22:06;95644.78;;;19.34;100.00
25420;BME280;13354;48.174;11.566;2023-07-13T00:24:31;95652.97;;;19.44;100.00
25420;BME280;13354;48.174;11.566;2023-07-13T00:26:57;95655.03;;;19.37;100.00
25420;BME280;13354;48.174;11.566;2023-07-13T00:29:22;95644.84;;;19.39;100.00
25420;BME280;13354;48.174;11.566;2023-07-13T00:31:47;95644.09;;;19.44;100.00
25420;BME280;13354;48.174;11.566;2023-07-13T00:34:13;95640.91;;;19.47;100.00
25420;BME280;13354;48.174;11.566;2023-07-13T00:36:38;95656.59;;;19.33;100.00
25420;BME280;13354;48.174;11.566;2023-07-13T00:39:04;95665.94;;;19.30;100.00
25420;BME280;13354;48.174;11.566;2023-07-13T00:41:29;95659.75;;;19.30;100.00
25420;BME280;13354;48.174;11.566;2023-07-13T00:43:55;95659.69;;;19.47;100.00
25420;BME280;13354;48.174;11.566;2023-07-13T00:46:23;95660.06;;;19.34;100.00
25420;BME280;13354;48.174;11.566;2023-07-13T00:48:51;95662.56;;;19.40;100.00
25420;BME280;13354;48.174;11.566;2023-07-13T00:51:24;95664.91;;;19.53;100.00
25420;BME280;13354;48.174;11.566;2023-07-13T00:53:53;95655.88;;;19.43;100.00
25420;BME280;13354;48.174;11.566;2023-07-13T00:56:19;95653.22;;;19.43;100.00
25420;BME280;13354;48.174;11.566;2023-07-13T00:58:45;95663.66;;;19.61;100.00
25420;BME280;13354;48.174;11.566;2023-07-13T01:01:10;95676.94;;;19.68;100.00
25420;BME280;13354;48.174;11.566;2023-07-13T01:03:38;95658.88;;;19.63;99.50
25420;BME280;13354;48.174;11.566;2023-07-13T01:06:05;95643.41;;;19.53;99.45
25420;BME280;13354;48.174;11.566;2023-07-13T01:08:31;95633.91;;;19.63;98.77
25420;BME280;13354;48.174;11.566;2023-07-13T01:10:57;95639.44;;;19.56;99.98
25420;BME280;13354;48.174;11.566;2023-07-13T01:13:23;95636.44;;;19.52;99.42
25420;BME280;13354;48.174;11.566;2023-07-13T01:15:50;95628.59;;;19.51;99.17
25420;BME280;13354;48.174;11.566;2023-07-13T01:18:26;95620.22;;;19.64;100.00
25420;BME280;13354;48.174;11.566;2023-07-13T01:20:53;95618.81;;;19.62;100.00
25420;BME280;13354;48.174;11.566;2023-07-13T01:23:19;95622.91;;;19.64;100.00
25420;BME280;13354;48.174;11.566;2023-07-13T01:25:45;95616.38;;;19.60;99.48
25420;BME280;13354;48.174;11.566;2023-07-13T01:28:10;95617.66;;;19.74;99.30
25420;BME280;13354;48.174;11.566;2023-07-13T01:30:37;95610.59;;;19.68;99.65
25420;BME280;13354;48.174;11.566;2023-07-13T01:33:05;95608.16;;;19.67;100.00
25420;BME280;13354;48.174;11.566;2023-07-13T01:35:32;95604.91;;;19.65;100.00
25420;BME280;13354;48.174;11.566;2023-07-13T01:37:57;95610.09;;;19.71;100.00
25420;BME280;13354;48.174;11.566;2023-07-13T01:40:22;95610.47;;;19.80;99.66
25420;BME280;13354;48.174;11.566;2023-07-13T01:42:48;95615.63;;;19.87;98.40
25420;BME280;13354;48.174;11.566;2023-07-13T01:45:14;95629.00;;;20.03;97.76
25420;BME280;13354;48.174;11.566;2023-07-13T01:47:39;95626.75;;;19.95;97.82
25420;BME280;13354;48.174;11.566;2023-07-13T01:50:05;95633.31;;;20.05;97.99
25420;BME280;13354;48.174;11.566;2023-07-13T01:52:30;95636.59;;;20.12;98.18
25420;BME280;13354;48.174;11.566;2023-07-13T01:54:56;95636.84;;;20.10;99.28
25420;BME280;13354;48.174;11.566;2023-07-13T01:57:21;95637.78;;;19.99;99.44
25420;BME280;13354;48.174;11.566;2023-07-13T01:59:46;95641.81;;;19.96;98.79
25420;BME280;13354;48.174;11.566;2023-07-13T02:02:11;95646.75;;;20.05;98.99
25420;BME280;13354;48.174;11.566;2023-07-13T02:04:37;95645.31;;;19.97;98.88
25420;BME280;13354;48.174;11.566;2023-07-13T02:07:02;95645.34;;;20.02;99.50
25420;BME280;13354;48.174;11.566;2023-07-13T02:09:28;95647.19;;;19.96;99.43
25420;BME280;13354;48.174;11.566;2023-07-13T02:11:53;95646.47;;;20.06;99.56
25420;BME280;13354;48.174;11.566;2023-07-13T02:14:18;95644.50;;;19.96;99.57
25420;BME280;13354;48.174;11.566;2023-07-13T02:16:43;95652.00;;;19.94;100.00
25420;BME280;13354;48.174;11.566;2023-07-13T02:19:09;95651.94;;;19.89;100.00
25420;BME280;13354;48.174;11.566;2023-07-13T02:21:34;95646.06;;;19.92;100.00
25420;BME280;13354;48.174;11.566;2023-07-13T02:24:00;95646.63;;;19.94;100.00
25420;BME280;13354;48.174;11.566;2023-07-13T02:26:26;95646.88;;;19.93;100.00
25420;BME280;13354;48.174;11.566;2023-07-13T02:28:51;95657.03;;;20.13;100.00
25420;BME280;13354;48.174;11.566;2023-07-13T02:31:17;95661.25;;;20.03;100.00
25420;BME280;13354;48.174;11.566;2023-07-13T02:33:43;95662.88;;;19.83;100.00
25420;BME280;13354;48.174;11.566;2023-07-13T02:36:09;95679.97;;;19.76;100.00
25420;BME280;13354;48.174;11.566;2023-07-13T02:38:34;95673.63;;;19.83;100.00
25420;BME280;13354;48.174;11.566;2023-07-13T02:41:01;95677.19;;;19.66;100.00
25420;BME280;13354;48.174;11.566;2023-07-13T02:43:27;95691.97;;;19.69;100.00
25420;BME280;13354;48.174;11.566;2023-07-13T02:45:52;95692.38;;;19.61;100.00
25420;BME280;13354;48.174;11.566;2023-07-13T02:48:17;95698.09;;;19.47;100.00
25420;BME280;13354;48.174;11.566;2023-07-13T02:50:44;95700.47;;;19.44;100.00
25420;BME280;13354;48.174;11.566;2023-07-13T02:53:09;95702.09;;;19.45;100.00
25420;BME280;13354;48.174;11.566;2023-07-13T02:55:35;95707.59;;;19.33;100.00
25420;BME280;13354;48.174;11.566;2023-07-13T02:58:00;95706.09;;;19.25;100.00
25420;BME280;13354;48.174;11.566;2023-07-13T03:00:26;95706.03;;;19.20;100.00
25420;BME280;13354;48.174;11.566;2023-07-13T03:02:51;95701.31;;;19.11;100.00
25420;BME280;13354;48.174;11.566;2023-07-13T03:05:18;95699.31;;;19.01;100.00
25420;BME280;13354;48.174;11.566;2023-07-13T03:07:43;95694.41;;;18.98;100.00
25420;BME280;13354;48.174;11.566;2023-07-13T03:10:09;95701.00;;;19.07;100.00
25420;BME280;13354;48.174;11.566;2023-07-13T03:12:34;95701.63;;;19.14;100.00
25420;BME280;13354;48.174;11.566;2023-07-13T03:15:00;95698.94;;;19.14;100.00
25420;BME280;13354;48.174;11.566;2023-07-13T03:17:25;95710.59;;;19.20;100.00
25420;BME280;13354;48.174;11.566;2023-07-13T03:19:50;95716.38;;;18.95;100.00
25420;BME280;13354;48.174;11.566;2023-07-13T03:22:17;95716.19;;;18.85;100.00
25420;BME280;13354;48.174;11.566;2023-07-13T03:24:42;95724.09;;;18.91;100.00
25420;BME280;13354;48.174;11.566;2023-07-13T03:27:08;95726.69;;;18.86;100.00
25420;BME280;13354;48.174;11.566;2023-07-13T03:29:33;95719.53;;;18.92;100.00
25420;BME280;13354;48.174;11.566;2023-07-13T03:31:59;95715.53;;;18.77;100.00
25420;BME280;13354;48.174;11.566;2023-07-13T03:34:24;95711.22;;;18.76;100.00
25420;BME280;13354;48.174;11.566;2023-07-13T03:36:50;95711.53;;;18.63;100.00
25420;BME280;13354;48.174;11.566;2023-07-13T03:39:15;95722.25;;;18.63;100.00
25420;BME280;13354;48.174;11.566;2023-07-13T03:41:40;95725.22;;;18.95;100.00
25420;BME280;13354;48.174;11.566;2023-07-13T03:44:06;95727.19;;;18.83;100.00
25420;BME280;13354;48.174;11.566;2023-07-13T03:46:32;95728.31;;;18.87;100.00
25420;BME280;13354;48.174;11.566;2023-07-13T03:48:58;95728.75;;;18.67;100.00
25420;BME280;13354;48.174;11.566;2023-07-13T03:51:24;95723.16;;;18.69;100.00
25420;BME280;13354;48.174;11.566;2023-07-13T03:53:49;95715.19;;;18.74;100.00
25420;BME280;13354;48.174;11.566;2023-07-13T03:56:16;95726.06;;;18.67;100.00
25420;BME280;13354;48.174;11.566;2023-07-13T03:58:44;95729.53;;;18.79;100.00
25420;BME280;13354;48.174;11.566;2023-07-13T04:01:11;95727.09;;;18.78;100.00
25420;BME280;13354;48.174;11.566;2023-07-13T04:03:37;95738.97;;;18.70;100.00
25420;BME280;13354;48.174;11.566;2023-07-13T04:06:05;95733.88;;;18.69;100.00
25420;BME280;13354;48.174;11.566;2023-07-13T04:08:34;95738.56;;;18.62;100.00
25420;BME280;13354;48.174;11.566;2023-07-13T04:11:01;95738.66;;;18.67;100.00
25420;BME280;13354;48.174;11.566;2023-07-13T04:13:27;95741.03;;;18.63;100.00
25420;BME280;13354;48.174;11.566;2023-07-13T04:15:53;95739.78;;;18.54;100.00
25420;BME280;13354;48.174;11.566;2023-07-13T04:18:19;95743.41;;;18.48;100.00
25420;BME280;13354;48.174;11.566;2023-07-13T04:20:46;95749.91;;;18.52;100.00
25420;BME280;13354;48.174;11.566;2023-07-13T04:23:11;95753.78;;;18.44;100.00
25420;BME280;13354;48.174;11.566;2023-07-13T04:25:37;95753.31;;;18.47;100.00
25420;BME280;13354;48.174;11.566;2023-07-13T04:28:04;95751.41;;;18.59;100.00
25420;BME280;13354;48.174;11.566;2023-07-13T04:30:30;95751.84;;;18.68;100.00
25420;BME280;13354;48.174;11.566;2023-07-13T04:32:56;95752.06;;;18.67;100.00
25420;BME280;13354;48.174;11.566;2023-07-13T04:35:21;95759.22;;;18.61;100.00
25420;BME280;13354;48.174;11.566;2023-07-13T04:37:49;95760.50;;;18.58;100.00
25420;BME280;13354;48.174;11.566;2023-07-13T04:40:19;95763.13;;;18.70;100.00
25420;BME280;13354;48.174;11.566;2023-07-13T04:42:45;95755.94;;;18.59;100.00
25420;BME280;13354;48.174;11.566;2023-07-13T04:45:12;95766.25;;;18.50;100.00
25420;BME280;13354;48.174;11.566;2023-07-13T04:47:38;95770.41;;;18.58;100.00
25420;BME280;13354;48.174;11.566;2023-07-13T04:50:03;95769.50;;;18.52;100.00
25420;BME280;13354;48.174;11.566;2023-07-13T04:52:29;95760.81;;;18.62;100.00
25420;BME280;13354;48.174;11.566;2023-07-13T04:54:55;95769.34;;;18.71;100.00
25420;BME280;13354;48.174;11.566;2023-07-13T04:57:20;95771.22;;;18.87;98.44
25420;BME280;13354;48.174;11.566;2023-07-13T04:59:46;95775.53;;;18.71;98.62
25420;BME280;13354;48.174;11.566;2023-07-13T05:02:11;95764.91;;;18.65;99.29
25420;BME280;13354;48.174;11.566;2023-07-13T05:04:36;95775.13;;;18.79;98.09
25420;BME280;13354;48.174;11.566;2023-07-13T05:07:02;95779.91;;;18.77;97.37
25420;BME280;13354;48.174;11.566;2023-07-13T05:09:27;95788.47;;;18.74;97.93
25420;BME280;13354;48.174;11.566;2023-07-13T05:11:52;95790.50;;;18.84;96.53
25420;BME280;13354;48.174;11.566;2023-07-13T05:14:18;95795.28;;;18.70;97.51
25420;BME280;13354;48.174;11.566;2023-07-13T05:16:43;95784.47;;;18.65;99.18
25420;BME280;13354;48.174;11.566;2023-07-13T05:19:09;95781.72;;;18.60;98.78
25420;BME280;13354;48.174;11.566;2023-07-13T05:21:35;95790.25;;;18.57;100.00
25420;BME280;13354;48.174;11.566;2023-07-13T05:24:00;95789.84;;;18.65;100.00
25420;BME280;13354;48.174;11.566;2023-07-13T05:26:26;95787.63;;;18.62;100.00
25420;BME280;13354;48.174;11.566;2023-07-13T05:28:52;95781.84;;;18.53;99.84
25420;BME280;13354;48.174;11.566;2023-07-13T05:31:17;95781.72;;;18.60;100.00
25420;BME280;13354;48.174;11.566;2023-07-13T05:33:42;95784.56;;;18.70;99.85
25420;BME280;13354;48.174;11.566;2023-07-13T05:36:08;95791.31;;;18.56;100.00
25420;BME280;13354;48.174;11.566;2023-07-13T05:38:34;95790.97;;;18.52;100.00
25420;BME280;13354;48.174;11.566;2023-07-13T05:41:00;95792.31;;;18.55;100.00
25420;BME280;13354;48.174;11.566;2023-07-13T05:43:26;95795.81;;;18.55;100.00
25420;BME280;13354;48.174;11.566;2023-07-13T05:45:53;95791.53;;;18.54;100.00
25420;BME280;13354;48.174;11.566;2023-07-13T05:48:19;95794.88;;;18.62;100.00
25420;BME280;13354;48.174;11.566;2023-07-13T05:50:44;95796.34;;;18.69;99.65
25420;BME280;13354;48.174;11.566;2023-07-13T05:53:09;95792.63;;;18.70;99.46
25420;BME280;13354;48.174;11.566;2023-07-13T05:55:35;95789.41;;;18.85;97.76
25420;BME280;13354;48.174;11.566;2023-07-13T05:58:01;95795.50;;;19.09;97.54
25420;BME280;13354;48.174;11.566;2023-07-13T06:00:26;95798.44;;;19.08;97.12
25420;BME280;13354;48.174;11.566;2023-07-13T06:02:52;95798.34;;;19.19;96.12
25420;BME280;13354;48.174;11.566;2023-07-13T06:05:17;95797.44;;;19.14;96.41
25420;BME280;13354;48.174;11.566;2023-07-13T06:07:43;95798.75;;;19.11;96.88
25420;BME280;13354;48.174;11.566;2023-07-13T06:10:09;95803.63;;;19.14;96.46
25420;BME280;13354;48.174;11.566;2023-07-13T06:12:34;95803.22;;;19.05;95.29
25420;BME280;13354;48.174;11.566;2023-07-13T06:15:00;95803.13;;;19.00;97.19
25420;BME280;13354;48.174;11.566;2023-07-13T06:17:25;95811.84;;;19.08;97.37
25420;BME280;13354;48.174;11.566;2023-07-13T06:19:50;95813.47;;;19.42;96.64
25420;BME280;13354;48.174;11.566;2023-07-13T06:22:15;95814.88;;;19.45;94.66
25420;BME280;13354;48.174;11.566;2023-07-13T06:24:41;95809.84;;;19.65;92.66
25420;BME280;13354;48.174;11.566;2023-07-13T06:27:06;95813.91;;;19.68;92.11
25420;BME280;13354;48.174;11.566;2023-07-13T06:29:31;95814.63;;;19.80;90.86
25420;BME280;13354;48.174;11.566;2023-07-13T06:31:57;95817.94;;;19.53;90.71
25420;BME280;13354;48.174;11.566;2023-07-13T06:34:22;95816.53;;;19.63;92.21
25420;BME280;13354;48.174;11.566;2023-07-13T06:36:47;95820.56;;;19.82;91.63
25420;BME280;13354;48.174;11.566;2023-07-13T06:39:13;95826.81;;;19.88;88.04
25420;BME280;13354;48.174;11.566;2023-07-13T06:41:38;95835.19;;;19.91;88.40
25420;BME280;13354;48.174;11.566;2023-07-13T06:44:04;95832.19;;;19.88;89.27
25420;BME280;13354;48.174;11.566;2023-07-13T06:46:29;95837.56;;;19.88;87.17
25420;BME280;13354;48.174;11.566;2023-07-13T06:48:55;95846.38;;;19.83;88.81
25420;BME280;13354;48.174;11.566;2023-07-13T06:51:21;95848.50;;;19.81;85.37
25420;BME280;13354;48.174;11.566;2023-07-13T06:53:46;95850.53;;;19.74;86.66
25420;BME280;13354;48.174;11.566;2023-07-13T06:56:11;95852.16;;;19.75;84.32
25420;BME280;13354;48.174;11.566;2023-07-13T06:58:37;95855.06;;;19.57;84.39
25420;BME280;13354;48.174;11.566;2023-07-13T07:01:04;95850.03;;;19.60;83.04
25420;BME280;13354;48.174;11.566;2023-07-13T07:03:29;95847.91;;;19.62;83.15
25420;BME280;13354;48.174;11.566;2023-07-13T07:06:00;95859.97;;;19.76;83.02
25420;BME280;13354;48.174;11.566;2023-07-13T07:08:26;95863.06;;;19.68;80.50
25420;BME280;13354;48.174;11.566;2023-07-13T07:10:51;95875.03;;;19.77;79.99
25420;BME280;13354;48.174;11.566;2023-07-13T07:13:19;95864.31;;;19.77;79.90
25420;BME280;13354;48.174;11.566;2023-07-13T07:15:44;95866.84;;;20.06;78.51
25420;BME280;13354;48.174;11.566;2023-07-13T07:18:10;95869.06;;;20.09;78.59
25420;BME280;13354;48.174;11.566;2023-07-13T07:20:35;95863.84;;;20.02;77.16
25420;BME280;13354;48.174;11.566;2023-07-13T07:23:00;95858.16;;;19.99;77.00
25420;BME280;13354;48.174;11.566;2023-07-13T07:25:26;95860.13;;;20.03;77.61
25420;BME280;13354;48.174;11.566;2023-07-13T07:27:51;95849.84;;;20.00;76.20
25420;BME280;13354;48.174;11.566;2023-07-13T07:30:16;95858.88;;;19.94;75.34
25420;BME280;13354;48.174;11.566;2023-07-13T07:32:41;95865.28;;;20.10;75.83
25420;BME280;13354;48.174;11.566;2023-07-13T07:35:07;95875.31;;;20.15;76.42
25420;BME280;13354;48.174;11.566;2023-07-13T07:37:33;95867.09;;;20.21;74.24
25420;BME280;13354;48.174;11.566;2023-07-13T07:39:58;95864.03;;;20.35;73.62
25420;BME280;13354;48.174;11.566;2023-07-13T07:42:24;95870.66;;;20.27;74.31
25420;BME280;13354;48.174;11.566;2023-07-13T07:44:49;95877.97;;;20.32;71.20
25420;BME280;13354;48.174;11.566;2023-07-13T07:47:15;95885.22;;;20.31;67.86
25420;BME280;13354;48.174;11.566;2023-07-13T07:49:40;95891.22;;;20.38;70.09
25420;BME280;13354;48.174;11.566;2023-07-13T07:52:06;95891.66;;;20.30;72.79
25420;BME280;13354;48.174;11.566;2023-07-13T07:54:31;95893.91;;;20.38;72.35
25420;BME280;13354;48.174;11.566;2023-07-13T07:56:57;95899.88;;;20.40;73.53
25420;BME280;13354;48.174;11.566;2023-07-13T07:59:22;95893.16;;;20.43;74.17
25420;BME280;13354;48.174;11.566;2023-07-13T08:01:47;95891.16;;;20.33;73.41
25420;BME280;13354;48.174;11.566;2023-07-13T08:04:15;95900.56;;;20.14;74.23
25420;BME280;13354;48.174;11.566;2023-07-13T08:06:40;95912.06;;;20.09;74.12
25420;BME280;13354;48.174;11.566;2023-07-13T08:09:06;95909.88;;;19.89;74.97
25420;BME280;13354;48.174;11.566;2023-07-13T08:11:31;95911.59;;;19.78;76.16
25420;BME280;13354;48.174;11.566;2023-07-13T08:13:56;95917.38;;;19.70;75.43
25420;BME280;13354;48.174;11.566;2023-07-13T08:16:22;95927.13;;;19.76;75.28
25420;BME280;13354;48.174;11.566;2023-07-13T08:18:48;95928.13;;;19.59;76.70
25420;BME280;13354;48.174;11.566;2023-07-13T08:21:14;95925.31;;;19.37;75.80
25420;BME280;13354;48.174;11.566;2023-07-13T08:23:39;95916.84;;;19.57;76.25
25420;BME280;13354;48.174;11.566;2023-07-13T08:26:04;95921.13;;;19.58;76.33
25420;BME280;13354;48.174;11.566;2023-07-13T08:28:30;95924.53;;;19.36;75.97
25420;BME280;13354;48.174;11.566;2023-07-13T08:31:07;95924.16;;;19.44;75.98
25420;BME280;13354;48.174;11.566;2023-07-13T08:33:34;95930.66;;;19.48;72.13
25420;BME280;13354;48.174;11.566;2023-07-13T08:36:00;95930.41;;;19.50;67.97
25420;BME280;13354;48.174;11.566;2023-07-13T08:38:25;95933.75;;;19.57;65.07
25420;BME280;13354;48.174;11.566;2023-07-13T08:40:53;95941.69;;;19.64;63.88
25420;BME280;13354;48.174;11.566;2023-07-13T08:43:25;95945.78;;;19.66;62.78
25420;BME280;13354;48.174;11.566;2023-07-13T08:46:05;95943.50;;;19.75;62.72
25420;BME280;13354;48.174;11.566;2023-07-13T08:48:38;95936.97;;;19.88;62.23
25420;BME280;13354;48.174;11.566;2023-07-13T08:54:07;95946.50;;;19.95;62.33
25420;BME280;13354;48.174;11.566;2023-07-13T08:56:35;95951.72;;;20.02;62.18
25420;BME280;13354;48.174;11.566;2023-07-13T08:59:13;95950.16;;;20.23;62.20
25420;BME280;13354;48.174;11.566;2023-07-13T09:02:00;95949.69;;;20.26;60.61
25420;BME280;13354;48.174;11.566;2023-07-13T09:04:34;95950.44;;;20.43;59.03
25420;BME280;13354;48.174;11.566;2023-07-13T09:13:22;95940.38;;;20.50;57.71
25420;BME280;13354;48.174;11.566;2023-07-13T09:15:50;95946.13;;;20.42;56.56
25420;BME280;13354;48.174;11.566;2023-07-13T09:20:57;95948.28;;;20.40;56.63
25420;BME280;13354;48.174;11.566;2023-07-13T09:23:27;95946.47;;;20.46;56.83
25420;BME280;13354;48.174;11.566;2023-07-13T09:26:01;95948.66;;;20.49;57.34
25420;BME280;13354;48.174;11.566;2023-07-13T09:28:33;95939.53;;;20.67;56.99
25420;BME280;13354;48.174;11.566;2023-07-13T09:31:13;95937.19;;;20.54;56.31
25420;BME280;13354;48.174;11.566;2023-07-13T09:33:39;95940.59;;;20.66;55.69
25420;BME280;13354;48.174;11.566;2023-07-13T09:36:26;95943.50;;;20.64;54.79
25420;BME280;13354;48.174;11.566;2023-07-13T09:39:02;95945.91;;;20.83;54.11
25420;BME280;13354;48.174;11.566;2023-07-13T09:44:11;95950.34;;;20.72;54.59
25420;BME280;13354;48.174;11.566;2023-07-13T09:46:39;95945.72;;;20.67;56.06
25420;BME280;13354;48.174;11.566;2023-07-13T09:49:05;95945.53;;;20.74;56.93
25420;BME280;13354;48.174;11.566;2023-07-13T09:51:30;95949.72;;;20.87;56.13
25420;BME280;13354;48.174;11.566;2023-07-13T09:53:56;95939.03;;;20.92;55.36
25420;BME280;13354;48.174;11.566;2023-07-13T09:56:24;95947.78;;;21.26;55.19
25420;BME280;13354;48.174;11.566;2023-07-13T09:58:51;95952.03;;;21.44;53.99
25420;BME280;13354;48.174;11.566;2023-07-13T10:01:31;95948.97;;;21.62;54.12
25420;BME280;13354;48.174;11.566;2023-07-13T10:03:57;95949.66;;;21.80;53.46
25420;BME280;13354;48.174;11.566;2023-07-13T10:06:23;95939.94;;;22.06;53.82
25420;BME280;13354;48.174;11.566;2023-07-13T10:08:52;95936.94;;;22.39;51.84
25420;BME280;13354;48.174;11.566;2023-07-13T10:11:22;95929.31;;;22.31;49.74
25420;BME280;13354;48.174;11.566;2023-07-13T10:13:52;95940.81;;;22.16;48.07
25420;BME280;13354;48.174;11.566;2023-07-13T10:16:21;95951.59;;;22.16;47.63
25420;BME280;13354;48.174;11.566;2023-07-13T10:18:57;95955.38;;;22.15;49.32
25420;BME280;13354;48.174;11.566;2023-07-13T10:21:27;95961.94;;;22.25;49.95
25420;BME280;13354;48.174;11.566;2023-07-13T10:24:32;95959.78;;;22.27;51.29
25420;BME280;13354;48.174;11.566;2023-07-13T10:29:32;95960.63;;;22.32;51.09
25420;BME280;13354;48.174;11.566;2023-07-13T10:32:00;95960.59;;;22.70;50.62
25420;BME280;13354;48.174;11.566;2023-07-13T10:34:25;95954.84;;;22.98;50.44
25420;BME280;13354;48.174;11.566;2023-07-13T10:36:51;95947.69;;;23.60;48.76
25420;BME280;13354;48.174;11.566;2023-07-13T10:39:20;95947.78;;;24.11;48.21
25420;BME280;13354;48.174;11.566;2023-07-13T10:41:50;95953.06;;;24.98;46.69
25420;BME280;13354;48.174;11.566;2023-07-13T10:44:22;95944.94;;;24.93;45.71
25420;BME280;13354;48.174;11.566;2023-07-13T10:46:53;95955.91;;;24.42;47.12
25420;BME280;13354;48.174;11.566;2023-07-13T10:49:20;95955.34;;;24.24;47.56
25420;BME280;13354;48.174;11.566;2023-07-13T10:51:47;95954.53;;;24.24;48.27
25420;BME280;13354;48.174;11.566;2023-07-13T10:54:17;95956.44;;;24.18;46.34
25420;BME280;13354;48.174;11.566;2023-07-13T10:56:43;95952.66;;;24.14;45.03
25420;BME280;13354;48.174;11.566;2023-07-13T10:59:16;95958.63;;;24.01;46.68
25420;BME280;13354;48.174;11.566;2023-07-13T11:01:54;95966.44;;;24.18;46.31
25420;BME280;13354;48.174;11.566;2023-07-13T11:04:21;95952.88;;;24.58;44.92
25420;BME280;13354;48.174;11.566;2023-07-13T11:06:52;95956.69;;;24.68;44.64
25420;BME280;13354;48.174;11.566;2023-07-13T11:12:06;95966.41;;;24.69;43.16
25420;BME280;13354;48.174;11.566;2023-07-13T11:14:38;95977.25;;;24.69;43.20
25420;BME280;13354;48.174;11.566;2023-07-13T11:27:52;95966.13;;;24.70;43.18
25420;BME280;13354;48.174;11.566;2023-07-13T11:33:04;95961.25;;;24.72;42.42
25420;BME280;13354;48.174;11.566;2023-07-13T11:35:41;95938.66;;;25.13;42.56
25420;BME280;13354;48.174;11.566;2023-07-13T11:38:20;95941.50;;;25.37;43.81
25420;BME280;13354;48.174;11.566;2023-07-13T11:40:48;95939.00;;;25.56;44.03
25420;BME280;13354;48.174;11.566;2023-07-13T11:43:16;95942.66;;;25.70;42.33
25420;BME280;13354;48.174;11.566;2023-07-13T11:45:42;95927.16;;;25.41;42.08
25420;BME280;13354;48.174;11.566;2023-07-13T11:48:27;95921.31;;;25.14;43.98
25420;BME280;13354;48.174;11.566;2023-07-13T11:50:59;95919.28;;;25.45;42.74
25420;BME280;13354;48.174;11.566;2023-07-13T11:53:28;95922.38;;;25.62;42.82
25420;BME280;13354;48.174;11.566;2023-07-13T11:55:55;95919.91;;;25.71;41.85
25420;BME280;13354;48.174;11.566;2023-07-13T11:58:24;95909.00;;;25.76;42.11
25420;BME280;13354;48.174;11.566;2023-07-13T12:00:50;95914.50;;;26.05;43.45
25420;BME280;13354;48.174;11.566;2023-07-13T12:03:20;95910.63;;;26.16;41.67
25420;BME280;13354;48.174;11.566;2023-07-13T12:06:01;95916.03;;;26.16;39.95
25420;BME280;13354;48.174;11.566;2023-07-13T12:08:27;95915.78;;;26.13;41.01
25420;BME280;13354;48.174;11.566;2023-07-13T12:10:58;95912.81;;;26.14;40.90
25420;BME280;13354;48.174;11.566;2023-07-13T12:13:26;95917.00;;;26.31;40.88
25420;BME280;13354;48.174;11.566;2023-07-13T12:15:52;95906.84;;;26.41;40.66
25420;BME280;13354;48.174;11.566;2023-07-13T12:18:22;95910.72;;;26.64;40.86
25420;BME280;13354;48.174;11.566;2023-07-13T12:20:50;95903.19;;;26.80;41.79
25420;BME280;13354;48.174;11.566;2023-07-13T12:23:32;95905.91;;;26.80;40.29
25420;BME280;13354;48.174;11.566;2023-07-13T12:26:00;95909.81;;;26.45;40.26
25420;BME280;13354;48.174;11.566;2023-07-13T12:28:43;95900.75;;;25.96;41.27
25420;BME280;13354;48.174;11.566;2023-07-13T12:31:42;95892.47;;;25.77;42.62
25420;BME280;13354;48.174;11.566;2023-07-13T12:34:17;95902.50;;;25.77;43.35
25420;BME280;13354;48.174;11.566;2023-07-13T12:37:01;95903.06;;;25.74;42.66
25420;BME280;13354;48.174;11.566;2023-07-13T12:39:37;95899.59;;;25.68;42.95
25420;BME280;13354;48.174;11.566;2023-07-13T12:42:26;95904.00;;;25.54;41.99
25420;BME280;13354;48.174;11.566;2023-07-13T12:45:14;95896.59;;;25.25;42.90
25420;BME280;13354;48.174;11.566;2023-07-13T12:47:43;95902.00;;;25.30;43.90
25420;BME280;13354;48.174;11.566;2023-07-13T12:50:17;95893.06;;;25.25;43.51
25420;BME280;13354;48.174;11.566;2023-07-13T12:52:44;95887.41;;;25.21;42.42
25420;BME280;13354;48.174;11.566;2023-07-13T12:55:16;95884.09;;;25.35;42.23
25420;BME280;13354;48.174;11.566;2023-07-13T12:57:51;95887.41;;;25.26;41.92
25420;BME280;13354;48.174;11.566;2023-07-13T13:00:27;95884.66;;;25.32;41.61
25420;BME280;13354;48.174;11.566;2023-07-13T13:02:56;95884.53;;;25.47;41.03
25420;BME280;13354;48.174;11.566;2023-07-13T13:05:22;95878.50;;;25.55;40.44
25420;BME280;13354;48.174;11.566;2023-07-13T13:07:50;95872.03;;;25.56;40.76
25420;BME280;13354;48.174;11.566;2023-07-13T13:10:15;95871.59;;;25.73;39.55
25420;BME280;13354;48.174;11.566;2023-07-13T13:12:41;95870.38;;;25.94;39.33
25420;BME280;13354;48.174;11.566;2023-07-13T13:15:12;95868.44;;;26.00;39.91
25420;BME280;13354;48.174;11.566;2023-07-13T13:17:38;95866.44;;;26.11;40.13
25420;BME280;13354;48.174;11.566;2023-07-13T13:20:18;95867.63;;;25.99;40.15